Terminal Aerodrome Forecast
Issued by NWS Tulsa, OK

Home | Current Version | Previous Version | Text Only | Print | Product List | Glossary On
Versions: 1 2 3 4 5 6 7 8 9 10 11 12 13 14 15 16 17 18 19 20 21 22 23 24 25
000
FTUS44 KTSA 251200 AAA
TAFFSM
TAF AMD
KFSM 251249Z 2513/2612 06005KT 3SM BR OVC002
      TEMPO 2513/2516 5SM BR BKN008
     FM251600 17012G23KT P6SM OVC022
      TEMPO 2520/2524 1SM +TSRA BKN025CB
     FM260000 18013KT P6SM OVC025
     FM260900 20002KT 2SM BR OVC007=

USA.gov is the U.S. government's official web portal to all federal, state and local government web resources and services.